sensor_id;sensor_type;location;lat;lon;timestamp;pressure;altitude;pressure_sealevel;temperature;humidity
42725;BME280;28369;44.046;23.014;2023-05-10T00:01:04;101582.94;;;19.78;48.51
42725;BME280;28369;44.046;23.014;2023-05-10T00:03:29;101297.59;;;17.97;48.44
42725;BME280;28369;44.046;23.014;2023-05-10T00:05:55;101522.09;;;19.32;48.96
42725;BME280;28369;44.046;23.014;2023-05-10T00:08:20;101419.75;;;18.33;49.65
42725;BME280;28369;44.046;23.014;2023-05-10T00:10:46;101337.91;;;17.84;49.00
42725;BME280;28369;44.046;23.014;2023-05-10T00:13:12;101349.03;;;17.79;49.08
42725;BME280;28369;44.046;23.014;2023-05-10T00:15:37;101229.56;;;17.09;49.47
42725;BME280;28369;44.046;23.014;2023-05-10T00:18:03;101506.66;;;18.85;49.15
42725;BME280;28369;44.046;23.014;2023-05-10T00:20:28;101400.91;;;17.84;49.95
42725;BME280;28369;44.046;23.014;2023-05-10T00:22:54;101638.13;;;19.61;49.67
42725;BME280;28369;44.046;23.014;2023-05-10T00:25:19;101387.50;;;18.28;49.05
42725;BME280;28369;44.046;23.014;2023-05-10T00:27:47;101659.88;;;19.91;49.01
42725;BME280;28369;44.046;23.014;2023-05-10T00:30:13;101413.41;;;18.26;48.74
42725;BME280;28369;44.046;23.014;2023-05-10T00:32:38;101473.19;;;18.40;49.38
42725;BME280;28369;44.046;23.014;2023-05-10T00:35:04;101518.66;;;18.12;50.28
42725;BME280;28369;44.046;23.014;2023-05-10T00:37:30;101491.34;;;18.44;49.27
42725;BME280;28369;44.046;23.014;2023-05-10T00:39:55;101466.91;;;18.14;49.35
42725;BME280;28369;44.046;23.014;2023-05-10T00:42:21;101300.13;;;17.38;49.48
42725;BME280;28369;44.046;23.014;2023-05-10T00:44:47;101151.94;;;16.45;49.27
42725;BME280;28369;44.046;23.014;2023-05-10T00:47:13;101244.16;;;16.87;49.33
42725;BME280;28369;44.046;23.014;2023-05-10T00:49:39;101469.28;;;18.18;49.49
42725;BME280;28369;44.046;23.014;2023-05-10T00:52:05;101308.00;;;17.21;49.63
42725;BME280;28369;44.046;23.014;2023-05-10T00:54:31;101312.38;;;17.31;49.31
42725;BME280;28369;44.046;23.014;2023-05-10T00:56:57;101460.44;;;17.65;50.59
42725;BME280;28369;44.046;23.014;2023-05-10T00:59:22;101367.50;;;17.55;49.86
42725;BME280;28369;44.046;23.014;2023-05-10T01:01:48;101495.41;;;18.57;49.46
42725;BME280;28369;44.046;23.014;2023-05-10T01:04:14;101459.84;;;18.31;49.32
42725;BME280;28369;44.046;23.014;2023-05-10T01:06:43;101252.38;;;16.75;49.87
42725;BME280;28369;44.046;23.014;2023-05-10T01:09:10;101220.28;;;16.69;49.61
42725;BME280;28369;44.046;23.014;2023-05-10T01:11:38;101140.47;;;16.18;49.96
42725;BME280;28369;44.046;23.014;2023-05-10T01:14:04;101453.94;;;18.11;49.77
42725;BME280;28369;44.046;23.014;2023-05-10T01:16:37;101314.75;;;17.16;50.29
42725;BME280;28369;44.046;23.014;2023-05-10T01:19:15;101352.09;;;17.93;48.95
42725;BME280;28369;44.046;23.014;2023-05-10T01:21:56;101301.13;;;17.10;49.66
42725;BME280;28369;44.046;23.014;2023-05-10T01:24:49;101649.56;;;19.37;49.82
42725;BME280;28369;44.046;23.014;2023-05-10T01:35:57;101370.94;;;17.21;51.17
42725;BME280;28369;44.046;23.014;2023-05-10T01:38:30;101633.75;;;18.93;51.30
42725;BME280;28369;44.046;23.014;2023-05-10T01:41:05;101635.91;;;19.40;50.28
42725;BME280;28369;44.046;23.014;2023-05-10T01:43:42;101428.34;;;17.58;50.93
42725;BME280;28369;44.046;23.014;2023-05-10T01:46:19;101219.13;;;16.27;50.87
42725;BME280;28369;44.046;23.014;2023-05-10T01:48:51;101316.78;;;16.78;50.89
42725;BME280;28369;44.046;23.014;2023-05-10T01:51:22;101172.22;;;15.92;51.32
42725;BME280;28369;44.046;23.014;2023-05-10T01:53:49;101255.72;;;16.41;51.33
42725;BME280;28369;44.046;23.014;2023-05-10T01:56:19;101212.44;;;16.41;50.78
42725;BME280;28369;44.046;23.014;2023-05-10T01:58:47;101566.53;;;18.38;51.37
42725;BME280;28369;44.046;23.014;2023-05-10T02:01:14;101429.66;;;18.06;50.53
42725;BME280;28369;44.046;23.014;2023-05-10T02:03:42;101219.69;;;16.57;50.37
42725;BME280;28369;44.046;23.014;2023-05-10T02:06:10;101447.09;;;17.83;50.86
42725;BME280;28369;44.046;23.014;2023-05-10T02:08:39;101308.25;;;17.36;50.15
42725;BME280;28369;44.046;23.014;2023-05-10T02:11:05;101343.69;;;17.45;50.23
42725;BME280;28369;44.046;23.014;2023-05-10T02:13:34;101420.69;;;18.16;50.17
42725;BME280;28369;44.046;23.014;2023-05-10T02:16:01;101299.53;;;17.26;50.07
42725;BME280;28369;44.046;23.014;2023-05-10T02:18:29;101165.78;;;15.94;50.99
42725;BME280;28369;44.046;23.014;2023-05-10T02:20:57;101210.78;;;16.40;50.91
42725;BME280;28369;44.046;23.014;2023-05-10T02:23:23;101244.59;;;16.38;51.15
42725;BME280;28369;44.046;23.014;2023-05-10T02:25:51;101520.78;;;18.43;50.93
42725;BME280;28369;44.046;23.014;2023-05-10T02:28:19;101298.56;;;16.83;50.92
42725;BME280;28369;44.046;23.014;2023-05-10T02:30:46;101087.81;;;15.51;51.28
42725;BME280;28369;44.046;23.014;2023-05-10T02:33:13;101409.94;;;17.20;52.05
42725;BME280;28369;44.046;23.014;2023-05-10T02:35:39;101316.38;;;17.08;50.90
42725;BME280;28369;44.046;23.014;2023-05-10T02:38:06;101443.88;;;17.97;50.55
42725;BME280;28369;44.046;23.014;2023-05-10T02:40:33;101336.81;;;16.90;50.91
42725;BME280;28369;44.046;23.014;2023-05-10T02:43:01;101233.13;;;16.73;50.55
42725;BME280;28369;44.046;23.014;2023-05-10T02:45:30;101434.84;;;17.90;50.65
42725;BME280;28369;44.046;23.014;2023-05-10T02:47:56;101338.66;;;17.16;51.03
42725;BME280;28369;44.046;23.014;2023-05-10T02:50:22;101184.63;;;16.45;50.24
42725;BME280;28369;44.046;23.014;2023-05-10T02:52:51;101247.47;;;16.45;50.83
42725;BME280;28369;44.046;23.014;2023-05-10T02:55:22;101217.47;;;16.88;49.69
42725;BME280;28369;44.046;23.014;2023-05-10T02:57:58;101157.03;;;16.64;49.31
42725;BME280;28369;44.046;23.014;2023-05-10T03:00:25;101205.06;;;17.32;48.79
42725;BME280;28369;44.046;23.014;2023-05-10T03:02:51;101080.25;;;16.36;48.95
42725;BME280;28369;44.046;23.014;2023-05-10T03:05:16;101089.34;;;15.89;49.43
42725;BME280;28369;44.046;23.014;2023-05-10T03:07:42;101236.81;;;16.81;49.72
42725;BME280;28369;44.046;23.014;2023-05-10T03:10:08;101266.78;;;16.91;49.82
42725;BME280;28369;44.046;23.014;2023-05-10T03:15:31;101618.94;;;19.49;49.15
42725;BME280;28369;44.046;23.014;2023-05-10T03:18:22;101617.63;;;19.54;49.27
42725;BME280;28369;44.046;23.014;2023-05-10T03:20:57;101070.56;;;15.83;49.77
42725;BME280;28369;44.046;23.014;2023-05-10T03:23:32;101211.25;;;17.06;49.19
42725;BME280;28369;44.046;23.014;2023-05-10T03:25:59;101323.44;;;17.26;50.21
42725;BME280;28369;44.046;23.014;2023-05-10T03:28:26;101286.16;;;17.36;49.34
42725;BME280;28369;44.046;23.014;2023-05-10T03:30:55;101180.94;;;16.20;50.07
42725;BME280;28369;44.046;23.014;2023-05-10T03:33:21;101336.91;;;17.24;50.22
42725;BME280;28369;44.046;23.014;2023-05-10T03:35:47;101336.44;;;17.90;48.87
42725;BME280;28369;44.046;23.014;2023-05-10T03:38:13;101067.34;;;15.43;49.89
42725;BME280;28369;44.046;23.014;2023-05-10T03:40:39;101418.03;;;17.55;50.99
42725;BME280;28369;44.046;23.014;2023-05-10T03:43:04;101208.84;;;16.50;49.85
42725;BME280;28369;44.046;23.014;2023-05-10T03:45:30;101414.94;;;17.68;50.46
42725;BME280;28369;44.046;23.014;2023-05-10T03:47:57;101218.97;;;16.47;50.31
42725;BME280;28369;44.046;23.014;2023-05-10T03:50:23;101322.84;;;17.93;48.69
42725;BME280;28369;44.046;23.014;2023-05-10T03:52:49;101224.84;;;17.03;48.84
42725;BME280;28369;44.046;23.014;2023-05-10T03:55:14;101266.00;;;16.99;49.43
42725;BME280;28369;44.046;23.014;2023-05-10T03:57:41;101149.50;;;16.51;48.80
42725;BME280;28369;44.046;23.014;2023-05-10T04:00:07;101194.41;;;16.89;48.85
42725;BME280;28369;44.046;23.014;2023-05-10T04:02:33;101315.88;;;17.66;48.91
42725;BME280;28369;44.046;23.014;2023-05-10T04:04:59;101094.41;;;16.45;48.49
42725;BME280;28369;44.046;23.014;2023-05-10T04:07:24;101203.22;;;16.89;49.26
42725;BME280;28369;44.046;23.014;2023-05-10T04:09:50;101071.81;;;16.15;48.70
42725;BME280;28369;44.046;23.014;2023-05-10T04:12:15;101436.28;;;18.45;48.38
42725;BME280;28369;44.046;23.014;2023-05-10T04:14:41;101133.72;;;16.50;49.08
42725;BME280;28369;44.046;23.014;2023-05-10T04:17:06;101435.13;;;18.05;49.04
42725;BME280;28369;44.046;23.014;2023-05-10T04:19:32;101202.56;;;17.22;48.09
42725;BME280;28369;44.046;23.014;2023-05-10T04:21:58;101419.47;;;18.36;48.05
42725;BME280;28369;44.046;23.014;2023-05-10T04:24:24;101428.19;;;18.71;47.70
42725;BME280;28369;44.046;23.014;2023-05-10T04:26:50;101286.63;;;18.00;47.86
42725;BME280;28369;44.046;23.014;2023-05-10T04:29:15;101464.75;;;18.95;47.56
42725;BME280;28369;44.046;23.014;2023-05-10T04:31:41;101335.19;;;17.68;47.97
42725;BME280;28369;44.046;23.014;2023-05-10T04:34:06;101172.06;;;16.73;48.66
42725;BME280;28369;44.046;23.014;2023-05-10T04:36:32;101293.94;;;17.98;47.90
42725;BME280;28369;44.046;23.014;2023-05-10T04:39:01;101152.31;;;17.02;47.87
42725;BME280;28369;44.046;23.014;2023-05-10T04:41:28;101147.75;;;17.21;47.31
42725;BME280;28369;44.046;23.014;2023-05-10T04:43:53;101184.91;;;17.13;47.50
42725;BME280;28369;44.046;23.014;2023-05-10T04:46:19;101275.22;;;17.13;48.66
42725;BME280;28369;44.046;23.014;2023-05-10T04:48:44;101557.88;;;19.22;48.08
42725;BME280;28369;44.046;23.014;2023-05-10T04:51:10;101137.63;;;17.16;47.48
42725;BME280;28369;44.046;23.014;2023-05-10T04:53:36;101278.91;;;18.48;47.03
42725;BME280;28369;44.046;23.014;2023-05-10T04:56:02;101264.72;;;18.47;46.26
42725;BME280;28369;44.046;23.014;2023-05-10T04:58:27;101194.22;;;17.59;47.09
42725;BME280;28369;44.046;23.014;2023-05-10T05:00:53;101462.44;;;19.42;46.95
42725;BME280;28369;44.046;23.014;2023-05-10T05:03:18;101620.97;;;20.22;46.66
42725;BME280;28369;44.046;23.014;2023-05-10T05:05:44;101176.44;;;17.60;46.52
42725;BME280;28369;44.046;23.014;2023-05-10T05:08:10;101150.81;;;17.93;45.61
42725;BME280;28369;44.046;23.014;2023-05-10T05:10:35;101158.63;;;18.36;45.02
42725;BME280;28369;44.046;23.014;2023-05-10T05:13:01;101203.63;;;19.04;44.14
42725;BME280;28369;44.046;23.014;2023-05-10T05:15:26;101284.09;;;19.55;44.07
42725;BME280;28369;44.046;23.014;2023-05-10T05:17:52;101444.34;;;20.49;44.23
42725;BME280;28369;44.046;23.014;2023-05-10T05:20:18;101322.94;;;19.58;44.35
42725;BME280;28369;44.046;23.014;2023-05-10T05:22:44;101427.78;;;20.85;43.19
42725;BME280;28369;44.046;23.014;2023-05-10T05:25:10;101288.50;;;20.42;42.86
42725;BME280;28369;44.046;23.014;2023-05-10T05:27:36;101104.06;;;18.32;43.42
42725;BME280;28369;44.046;23.014;2023-05-10T05:30:02;101272.75;;;18.89;44.46
42725;BME280;28369;44.046;23.014;2023-05-10T05:32:29;101349.63;;;19.41;44.90
42725;BME280;28369;44.046;23.014;2023-05-10T05:34:55;101447.84;;;20.10;44.37
42725;BME280;28369;44.046;23.014;2023-05-10T05:37:21;101207.84;;;18.57;44.57
42725;BME280;28369;44.046;23.014;2023-05-10T05:39:47;101399.94;;;20.17;43.59
42725;BME280;28369;44.046;23.014;2023-05-10T05:42:13;101285.47;;;20.45;42.27
42725;BME280;28369;44.046;23.014;2023-05-10T05:44:39;101262.44;;;19.50;42.06
42725;BME280;28369;44.046;23.014;2023-05-10T05:47:05;101396.22;;;20.26;43.19
42725;BME280;28369;44.046;23.014;2023-05-10T05:49:31;101478.69;;;21.15;42.80
42725;BME280;28369;44.046;23.014;2023-05-10T05:52:02;101317.41;;;20.07;43.00
42725;BME280;28369;44.046;23.014;2023-05-10T05:54:28;101253.13;;;19.94;42.47
42725;BME280;28369;44.046;23.014;2023-05-10T05:56:55;101465.28;;;21.62;41.97
42725;BME280;28369;44.046;23.014;2023-05-10T05:59:21;101329.56;;;20.41;42.60
42725;BME280;28369;44.046;23.014;2023-05-10T06:01:47;101544.69;;;21.15;42.73
42725;BME280;28369;44.046;23.014;2023-05-10T06:04:12;101264.28;;;19.49;42.17
42725;BME280;28369;44.046;23.014;2023-05-10T06:06:38;101322.28;;;19.47;42.59
42725;BME280;28369;44.046;23.014;2023-05-10T06:09:03;101162.03;;;18.94;41.53
42725;BME280;28369;44.046;23.014;2023-05-10T06:11:29;101259.41;;;19.13;42.54
42725;BME280;28369;44.046;23.014;2023-05-10T06:13:57;101235.63;;;19.91;41.18
42725;BME280;28369;44.046;23.014;2023-05-10T06:16:23;101272.31;;;19.89;41.12
42725;BME280;28369;44.046;23.014;2023-05-10T06:18:48;101467.16;;;21.15;41.54
42725;BME280;28369;44.046;23.014;2023-05-10T06:21:14;101255.22;;;19.19;41.87
42725;BME280;28369;44.046;23.014;2023-05-10T06:23:40;101334.22;;;19.76;41.70
42725;BME280;28369;44.046;23.014;2023-05-10T06:26:05;101288.56;;;20.34;40.24
42725;BME280;28369;44.046;23.014;2023-05-10T06:28:31;101186.41;;;20.17;39.55
42725;BME280;28369;44.046;23.014;2023-05-10T06:30:57;101301.66;;;20.90;39.09
42725;BME280;28369;44.046;23.014;2023-05-10T06:33:23;101244.94;;;20.42;38.97
42725;BME280;28369;44.046;23.014;2023-05-10T06:35:48;101180.00;;;20.03;39.83
42725;BME280;28369;44.046;23.014;2023-05-10T06:38:14;101266.91;;;20.75;38.67
42725;BME280;28369;44.046;23.014;2023-05-10T06:40:43;101462.84;;;22.35;37.62
42725;BME280;28369;44.046;23.014;2023-05-10T06:43:09;101636.06;;;23.60;37.18
42725;BME280;28369;44.046;23.014;2023-05-10T06:45:35;101160.97;;;20.44;38.72
42725;BME280;28369;44.046;23.014;2023-05-10T06:48:00;101466.25;;;22.29;38.18
42725;BME280;28369;44.046;23.014;2023-05-10T06:50:26;101145.13;;;20.58;36.95
42725;BME280;28369;44.046;23.014;2023-05-10T06:52:52;101279.91;;;20.55;37.88
42725;BME280;28369;44.046;23.014;2023-05-10T06:55:17;101256.16;;;20.14;37.61
42725;BME280;28369;44.046;23.014;2023-05-10T06:57:43;101268.25;;;20.25;38.18
42725;BME280;28369;44.046;23.014;2023-05-10T07:00:09;101149.75;;;19.56;37.67
42725;BME280;28369;44.046;23.014;2023-05-10T07:02:35;101172.94;;;19.87;38.01
42725;BME280;28369;44.046;23.014;2023-05-10T07:05:01;101328.06;;;20.62;38.70
42725;BME280;28369;44.046;23.014;2023-05-10T07:07:27;101416.59;;;21.28;36.98
42725;BME280;28369;44.046;23.014;2023-05-10T07:09:53;101494.50;;;21.86;37.22
42725;BME280;28369;44.046;23.014;2023-05-10T07:12:18;101217.50;;;20.71;36.73
42725;BME280;28369;44.046;23.014;2023-05-10T07:14:44;101448.88;;;22.24;37.01
42725;BME280;28369;44.046;23.014;2023-05-10T07:17:09;101400.19;;;21.69;36.37
42725;BME280;28369;44.046;23.014;2023-05-10T07:19:35;101339.94;;;21.73;35.80
42725;BME280;28369;44.046;23.014;2023-05-10T07:22:01;101275.34;;;21.32;35.79
42725;BME280;28369;44.046;23.014;2023-05-10T07:24:27;101222.50;;;21.34;36.10
42725;BME280;28369;44.046;23.014;2023-05-10T07:26:52;101580.47;;;23.76;36.34
42725;BME280;28369;44.046;23.014;2023-05-10T07:29:18;101285.03;;;21.63;35.74
42725;BME280;28369;44.046;23.014;2023-05-10T07:31:43;101606.56;;;23.39;34.97
42725;BME280;28369;44.046;23.014;2023-05-10T07:34:09;101354.72;;;21.46;35.10
42725;BME280;28369;44.046;23.014;2023-05-10T07:36:35;101577.84;;;22.51;35.99
42725;BME280;28369;44.046;23.014;2023-05-10T07:39:01;101498.84;;;22.02;36.36
42725;BME280;28369;44.046;23.014;2023-05-10T07:41:27;101658.19;;;23.41;36.02
42725;BME280;28369;44.046;23.014;2023-05-10T07:43:52;101154.78;;;20.97;35.31
42725;BME280;28369;44.046;23.014;2023-05-10T07:46:18;101604.97;;;23.88;35.08
42725;BME280;28369;44.046;23.014;2023-05-10T07:48:45;101428.19;;;22.48;35.16
42725;BME280;28369;44.046;23.014;2023-05-10T07:51:11;101621.03;;;23.59;34.74
42725;BME280;28369;44.046;23.014;2023-05-10T07:53:37;101507.16;;;23.04;34.96
42725;BME280;28369;44.046;23.014;2023-05-10T07:56:21;101470.19;;;22.63;35.19
42725;BME280;28369;44.046;23.014;2023-05-10T07:58:47;101360.63;;;22.16;35.99
42725;BME280;28369;44.046;23.014;2023-05-10T08:01:12;101418.31;;;22.70;34.30
42725;BME280;28369;44.046;23.014;2023-05-10T08:03:38;101447.25;;;23.40;34.30
42725;BME280;28369;44.046;23.014;2023-05-10T08:06:04;101566.31;;;23.60;33.31
42725;BME280;28369;44.046;23.014;2023-05-10T08:08:29;101605.22;;;24.56;32.26
42725;BME280;28369;44.046;23.014;2023-05-10T08:10:55;101480.53;;;23.45;33.56
42725;BME280;28369;44.046;23.014;2023-05-10T08:13:21;101307.22;;;22.08;32.64
42725;BME280;28369;44.046;23.014;2023-05-10T08:15:46;101400.47;;;23.21;33.31
42725;BME280;28369;44.046;23.014;2023-05-10T08:18:12;101559.97;;;23.90;33.05
42725;BME280;28369;44.046;23.014;2023-05-10T08:20:38;101598.09;;;24.70;32.82
42725;BME280;28369;44.046;23.014;2023-05-10T08:23:03;101447.75;;;23.50;31.54
42725;BME280;28369;44.046;23.014;2023-05-10T08:25:29;101606.81;;;24.72;32.09
42725;BME280;28369;44.046;23.014;2023-05-10T08:27:54;101596.06;;;24.09;30.79
42725;BME280;28369;44.046;23.014;2023-05-10T08:30:20;101427.34;;;23.56;31.20
42725;BME280;28369;44.046;23.014;2023-05-10T08:32:45;101571.56;;;25.09;30.78
42725;BME280;28369;44.046;23.014;2023-05-10T08:35:11;101327.53;;;23.74;30.68
42725;BME280;28369;44.046;23.014;2023-05-10T08:37:36;101566.31;;;25.62;30.54
42725;BME280;28369;44.046;23.014;2023-05-10T08:40:02;101641.09;;;25.87;30.74
42725;BME280;28369;44.046;23.014;2023-05-10T08:42:30;101660.38;;;26.11;31.05
42725;BME280;28369;44.046;23.014;2023-05-10T08:44:57;101384.84;;;23.94;31.11
42725;BME280;28369;44.046;23.014;2023-05-10T08:47:23;101531.44;;;25.27;31.17
42725;BME280;28369;44.046;23.014;2023-05-10T08:49:48;101556.84;;;24.98;30.70
42725;BME280;28369;44.046;23.014;2023-05-10T08:52:16;101516.09;;;24.46;31.12
42725;BME280;28369;44.046;23.014;2023-05-10T08:54:42;101444.06;;;24.21;31.21
42725;BME280;28369;44.046;23.014;2023-05-10T08:57:09;101502.88;;;24.51;31.91
42725;BME280;28369;44.046;23.014;2023-05-10T08:59:35;101413.28;;;24.30;30.92
42725;BME280;28369;44.046;23.014;2023-05-10T09:02:04;101632.13;;;25.53;30.74
42725;BME280;28369;44.046;23.014;2023-05-10T09:04:30;101397.44;;;23.59;31.30
42725;BME280;28369;44.046;23.014;2023-05-10T09:06:56;101578.91;;;25.35;30.82
42725;BME280;28369;44.046;23.014;2023-05-10T09:09:23;101548.00;;;25.11;30.28
42725;BME280;28369;44.046;23.014;2023-05-10T09:11:49;101365.91;;;24.03;30.68
42725;BME280;28369;44.046;23.014;2023-05-10T09:14:15;101411.69;;;23.94;31.45
42725;BME280;28369;44.046;23.014;2023-05-10T09:16:40;101405.72;;;23.92;31.18
42725;BME280;28369;44.046;23.014;2023-05-10T09:19:07;101407.06;;;24.23;31.25
42725;BME280;28369;44.046;23.014;2023-05-10T09:21:35;101352.47;;;24.78;30.79
42725;BME280;28369;44.046;23.014;2023-05-10T09:24:08;101360.91;;;24.75;31.06
42725;BME280;28369;44.046;23.014;2023-05-10T09:26:34;101567.31;;;25.81;30.92
42725;BME280;28369;44.046;23.014;2023-05-10T09:29:03;101531.06;;;25.24;30.83
42725;BME280;28369;44.046;23.014;2023-05-10T09:31:49;101476.22;;;25.31;30.57
42725;BME280;28369;44.046;23.014;2023-05-10T09:34:30;101373.34;;;25.16;30.73
42725;BME280;28369;44.046;23.014;2023-05-10T09:36:57;101520.94;;;25.52;30.63
42725;BME280;28369;44.046;23.014;2023-05-10T09:39:33;101553.03;;;25.67;29.53
42725;BME280;28369;44.046;23.014;2023-05-10T09:42:02;101602.34;;;25.61;29.83
42725;BME280;28369;44.046;23.014;2023-05-10T09:44:29;101551.94;;;25.28;30.38
42725;BME280;28369;44.046;23.014;2023-05-10T09:46:55;101557.38;;;25.95;30.96
42725;BME280;28369;44.046;23.014;2023-05-10T09:49:21;101586.59;;;25.78;30.16
42725;BME280;28369;44.046;23.014;2023-05-10T09:51:47;101547.84;;;25.59;30.98
42725;BME280;28369;44.046;23.014;2023-05-10T09:54:15;101475.13;;;24.99;30.24
42725;BME280;28369;44.046;23.014;2023-05-10T09:56:41;101582.19;;;26.37;31.00
42725;BME280;28369;44.046;23.014;2023-05-10T09:59:09;101525.78;;;26.49;30.22
42725;BME280;28369;44.046;23.014;2023-05-10T10:01:35;101602.44;;;27.51;28.33
42725;BME280;28369;44.046;23.014;2023-05-10T10:04:09;101602.09;;;27.02;29.06
42725;BME280;28369;44.046;23.014;2023-05-10T10:06:38;101597.34;;;27.42;28.45
42725;BME280;28369;44.046;23.014;2023-05-10T10:09:05;101459.75;;;26.65;30.43
42725;BME280;28369;44.046;23.014;2023-05-10T10:11:31;101467.13;;;26.83;28.87
42725;BME280;28369;44.046;23.014;2023-05-10T10:13:58;101557.06;;;27.02;28.95
42725;BME280;28369;44.046;23.014;2023-05-10T10:16:24;101571.84;;;26.34;28.51
42725;BME280;28369;44.046;23.014;2023-05-10T10:18:50;101564.38;;;26.36;28.11
42725;BME280;28369;44.046;23.014;2023-05-10T10:21:15;101587.13;;;27.06;29.26
42725;BME280;28369;44.046;23.014;2023-05-10T10:23:41;101517.78;;;26.75;27.85
42725;BME280;28369;44.046;23.014;2023-05-10T10:26:10;101498.44;;;26.84;28.27
42725;BME280;28369;44.046;23.014;2023-05-10T10:33:55;101450.84;;;26.97;26.92
42725;BME280;28369;44.046;23.014;2023-05-10T10:36:22;101459.44;;;26.42;28.04
42725;BME280;28369;44.046;23.014;2023-05-10T10:41:36;101560.84;;;26.95;28.75
42725;BME280;28369;44.046;23.014;2023-05-10T10:44:24;101567.28;;;27.32;29.15
42725;BME280;28369;44.046;23.014;2023-05-10T10:47:00;101562.75;;;27.58;29.40
42725;BME280;28369;44.046;23.014;2023-05-10T10:49:26;101552.28;;;27.68;28.06
42725;BME280;28369;44.046;23.014;2023-05-10T10:54:53;101522.38;;;27.63;28.97
42725;BME280;28369;44.046;23.014;2023-05-10T10:57:22;101502.16;;;27.72;29.51
42725;BME280;28369;44.046;23.014;2023-05-10T10:59:47;101512.22;;;27.65;26.94
42725;BME280;28369;44.046;23.014;2023-05-10T11:02:33;101540.13;;;28.21;26.99
42725;BME280;28369;44.046;23.014;2023-05-10T11:04:59;101480.00;;;28.07;26.73
42725;BME280;28369;44.046;23.014;2023-05-10T11:07:24;101488.59;;;28.35;27.27
42725;BME280;28369;44.046;23.014;2023-05-10T11:09:50;101542.72;;;29.14;26.13
42725;BME280;28369;44.046;23.014;2023-05-10T11:12:16;101420.50;;;28.26;26.84
42725;BME280;28369;44.046;23.014;2023-05-10T11:14:42;101503.59;;;28.98;27.14
42725;BME280;28369;44.046;23.014;2023-05-10T11:17:31;101490.34;;;29.08;26.21
42725;BME280;28369;44.046;23.014;2023-05-10T11:20:10;101415.09;;;28.26;25.20
42725;BME280;28369;44.046;23.014;2023-05-10T11:22:51;101539.88;;;28.78;25.70
42725;BME280;28369;44.046;23.014;2023-05-10T11:25:17;101488.00;;;28.51;25.68
42725;BME280;28369;44.046;23.014;2023-05-10T11:27:43;101465.91;;;28.54;26.02
42725;BME280;28369;44.046;23.014;2023-05-10T11:30:10;101475.75;;;27.74;26.49
42725;BME280;28369;44.046;23.014;2023-05-10T11:32:39;101496.19;;;28.44;26.59
42725;BME280;28369;44.046;23.014;2023-05-10T11:35:09;101427.66;;;27.83;26.95
42725;BME280;28369;44.046;23.014;2023-05-10T11:37:35;101370.25;;;27.07;25.46
42725;BME280;28369;44.046;23.014;2023-05-10T11:40:01;101332.53;;;27.44;25.36
42725;BME280;28369;44.046;23.014;2023-05-10T11:42:27;101489.88;;;28.14;25.48
42725;BME280;28369;44.046;23.014;2023-05-10T11:44:53;101181.75;;;25.59;25.65
42725;BME280;28369;44.046;23.014;2023-05-10T11:47:19;101485.78;;;28.30;25.40
42725;BME280;28369;44.046;23.014;2023-05-10T11:49:45;101387.53;;;27.68;26.08
42725;BME280;28369;44.046;23.014;2023-05-10T11:52:11;101447.78;;;28.06;26.88
42725;BME280;28369;44.046;23.014;2023-05-10T11:54:37;101127.47;;;26.01;25.28
42725;BME280;28369;44.046;23.014;2023-05-10T11:57:03;101309.06;;;27.63;25.85
42725;BME280;28369;44.046;23.014;2023-05-10T11:59:29;101287.13;;;27.16;25.57
42725;BME280;28369;44.046;23.014;2023-05-10T12:01:54;101505.00;;;28.21;26.20
42725;BME280;28369;44.046;23.014;2023-05-10T12:04:20;101495.38;;;28.44;25.83
42725;BME280;28369;44.046;23.014;2023-05-10T12:06:46;101487.16;;;28.51;26.84
42725;BME280;28369;44.046;23.014;2023-05-10T12:09:12;101492.84;;;28.79;25.99
42725;BME280;28369;44.046;23.014;2023-05-10T12:11:40;101493.22;;;28.16;26.26
42725;BME280;28369;44.046;23.014;2023-05-10T12:14:05;101494.31;;;29.06;25.67
42725;BME280;28369;44.046;23.014;2023-05-10T12:16:31;101495.69;;;28.96;25.58
42725;BME280;28369;44.046;23.014;2023-05-10T12:18:59;101408.31;;;29.43;25.46
42725;BME280;28369;44.046;23.014;2023-05-10T12:21:25;101465.66;;;29.52;25.69
42725;BME280;28369;44.046;23.014;2023-05-10T12:23:56;101367.59;;;28.49;24.95
42725;BME280;28369;44.046;23.014;2023-05-10T12:26:24;101435.34;;;28.96;25.28
42725;BME280;28369;44.046;23.014;2023-05-10T12:28:53;101434.91;;;29.70;25.24
42725;BME280;28369;44.046;23.014;2023-05-10T12:31:19;101473.09;;;29.57;25.26
42725;BME280;28369;44.046;23.014;2023-05-10T12:33:45;101396.31;;;29.16;25.58
42725;BME280;28369;44.046;23.014;2023-05-10T12:36:13;101441.84;;;29.07;24.64
42725;BME280;28369;44.046;23.014;2023-05-10T12:38:41;101282.19;;;28.17;24.90
42725;BME280;28369;44.046;23.014;2023-05-10T12:41:18;101310.47;;;27.66;25.40
42725;BME280;28369;44.046;23.014;2023-05-10T12:43:44;101355.84;;;28.13;25.52
42725;BME280;28369;44.046;23.014;2023-05-10T12:46:15;101443.59;;;29.13;26.16
42725;BME280;28369;44.046;23.014;2023-05-10T12:48:41;101468.13;;;29.77;24.59
42725;BME280;28369;44.046;23.014;2023-05-10T12:51:08;101456.25;;;29.55;25.11
42725;BME280;28369;44.046;23.014;2023-05-10T12:53:41;101426.34;;;29.38;24.51
42725;BME280;28369;44.046;23.014;2023-05-10T12:56:06;101393.81;;;28.90;24.62
42725;BME280;28369;44.046;23.014;2023-05-10T12:58:32;101319.84;;;28.00;24.94
42725;BME280;28369;44.046;23.014;2023-05-10T13:00:59;101373.44;;;28.34;26.07
42725;BME280;28369;44.046;23.014;2023-05-10T13:03:25;101415.41;;;28.18;25.41